Time;durP1;ratioP1;P1;durP2;ratioP2;P2;SDS_P1;SDS_P2;PMS_P1;PMS_P2;Temp;Humidity;BMP_temperature;BMP_pressure;BME280_temperature;BME280_humidity;BME280_pressure;Samples;Min_cycle;Max_cycle;Signal;HPM_P1;HPM_P2
2023/04/30 00:00:09;;;;;;;14.20;8.80;;;12.70;89.30;;;12.79;57.50;94639.31;4993220;28;20455;-56
2023/04/30 00:02:36;;;;;;;11.20;7.47;;;12.60;89.00;;;12.74;57.74;94647.69;4998711;28;20974;-56
2023/04/30 00:05:04;;;;;;;15.60;6.77;;;12.60;89.90;;;12.70;57.75;94644.56;4994198;28;20665;-56
2023/04/30 00:07:33;;;;;;;9.30;6.90;;;12.60;90.00;;;12.65;58.69;94644.19;4992231;28;20833;-72
2023/04/30 00:10:00;;;;;;;10.83;7.17;;;12.50;90.80;;;12.60;58.80;94645.66;4996883;28;20477;-74
2023/04/30 00:12:28;;;;;;;12.17;7.30;;;12.40;91.00;;;12.54;58.63;94637.38;4996287;28;20470;-56
2023/04/30 00:14:55;;;;;;;9.43;7.13;;;12.40;90.70;;;12.50;58.05;94641.31;4993014;28;20459;-73
2023/04/30 00:17:25;;;;;;;14.63;6.80;;;12.40;90.80;;;12.48;58.49;94643.28;4999266;28;20581;-71
2023/04/30 00:19:52;;;;;;;12.37;7.47;;;12.30;90.90;;;12.47;58.37;94643.44;4998696;28;20468;-57
2023/04/30 00:22:20;;;;;;;23.10;6.73;;;12.30;90.90;;;12.44;58.11;94638.47;4999202;28;20477;-55
2023/04/30 00:24:48;;;;;;;10.23;6.30;;;12.30;90.90;;;12.41;58.37;94647.53;4992993;28;20999;-72
2023/04/30 00:27:16;;;;;;;13.13;6.53;;;12.20;91.00;;;12.38;58.49;94643.41;4997337;28;20973;-56
2023/04/30 00:29:43;;;;;;;9.50;5.93;;;12.20;91.10;;;12.35;58.23;94640.25;4995407;28;20561;-71
2023/04/30 00:32:10;;;;;;;9.37;6.00;;;12.20;90.90;;;12.33;58.55;94643.06;5001540;28;20536;-56
2023/04/30 00:34:38;;;;;;;8.60;6.40;;;12.20;91.50;;;12.31;58.75;94642.34;4996527;28;20828;-72
2023/04/30 00:37:05;;;;;;;11.33;6.90;;;12.20;92.00;;;12.29;58.80;94644.34;4995512;28;20478;-56
2023/04/30 00:39:32;;;;;;;8.47;6.27;;;12.10;91.90;;;12.27;58.72;94648.09;4986528;28;20446;-71
2023/04/30 00:42:01;;;;;;;9.33;5.90;;;12.10;91.90;;;12.24;58.69;94646.63;4994656;28;21018;-55
2023/04/30 00:44:28;;;;;;;11.40;5.43;;;12.10;92.00;;;12.22;58.24;94642.47;4997280;28;20562;-55
2023/04/30 00:46:56;;;;;;;6.83;5.83;;;12.10;91.80;;;12.19;58.52;94640.97;4993292;28;20482;-72
2023/04/30 00:49:23;;;;;;;7.97;5.70;;;12.10;91.80;;;12.15;58.67;94632.56;4995830;28;20470;-73
2023/04/30 00:51:50;;;;;;;10.93;6.80;;;12.00;91.90;;;12.12;58.43;94638.13;4998994;28;20485;-71
2023/04/30 00:54:17;;;;;;;12.60;7.07;;;12.00;92.00;;;12.09;58.51;94635.81;4992322;28;20562;-55
2023/04/30 00:56:45;;;;;;;11.20;5.83;;;11.90;91.90;;;12.05;58.82;94631.00;4992379;28;21103;-57
2023/04/30 00:59:14;;;;;;;10.13;6.30;;;11.90;92.10;;;12.03;58.38;94628.50;4990529;28;20483;-56
2023/04/30 01:01:41;;;;;;;9.37;5.43;;;11.90;92.00;;;12.00;58.47;94631.47;4991554;28;20513;-57
2023/04/30 01:04:09;;;;;;;14.00;6.20;;;11.80;92.10;;;11.98;58.39;94639.53;4994010;28;20469;-73
2023/04/30 01:06:37;;;;;;;11.50;6.63;;;11.80;92.00;;;11.97;58.39;94632.59;4989652;28;20487;-56
2023/04/30 01:09:04;;;;;;;17.70;6.13;;;11.80;92.00;;;11.94;58.96;94624.16;4990661;28;21264;-73
2023/04/30 01:11:44;;;;;;;8.57;5.70;;;11.80;92.50;;;11.94;59.08;94629.44;4992078;28;20450;-57
2023/04/30 01:14:18;;;;;;;9.00;5.30;;;11.80;92.70;;;11.90;59.22;94634.16;4987819;28;20446;-58
2023/04/30 01:16:59;;;;;;;6.83;5.10;;;11.80;92.90;;;11.86;59.46;94635.44;4991294;28;20560;-56
2023/04/30 01:19:35;;;;;;;7.90;5.77;;;11.70;93.30;;;11.81;58.94;94635.91;4988843;28;20453;-56
2023/04/30 01:22:04;;;;;;;13.13;6.23;;;11.70;92.60;;;11.76;58.54;94643.44;4987681;28;21006;-57
2023/04/30 01:24:59;;;;;;;15.90;6.70;;;11.70;92.60;;;11.70;59.20;94633.53;4991972;28;20617;-56
2023/04/30 01:27:42;;;;;;;11.60;8.10;;;11.60;92.80;;;11.62;59.45;94633.47;4986711;28;20571;-72
2023/04/30 01:30:11;;;;;;;9.13;6.33;;;11.50;93.20;;;11.58;59.45;94630.28;4994785;28;20528;-56
2023/04/30 01:32:38;;;;;;;11.00;6.70;;;11.50;93.40;;;11.56;59.40;94631.44;4995495;28;20470;-56
2023/04/30 01:35:06;;;;;;;11.50;6.77;;;11.40;93.40;;;11.54;59.61;94628.97;4994229;28;20458;-72
2023/04/30 01:37:40;;;;;;;13.77;9.07;;;11.40;93.70;;;11.54;60.28;94639.50;4994787;28;20532;-73
2023/04/30 01:40:22;;;;;;;12.67;7.43;;;11.40;94.00;;;11.45;59.75;94641.22;4994558;28;20513;-72
2023/04/30 01:42:54;;;;;;;19.37;8.77;;;11.40;93.90;;;11.41;60.20;94639.03;4989505;28;20475;-56
2023/04/30 01:45:37;;;;;;;15.07;8.57;;;11.30;94.30;;;11.40;60.57;94645.25;4995431;28;20499;-57
2023/04/30 01:48:10;;;;;;;21.67;10.40;;;11.30;94.60;;;11.40;60.11;94643.47;4996480;28;20478;-56
2023/04/30 01:50:48;;;;;;;22.80;11.00;;;11.30;94.70;;;11.42;60.45;94646.78;4994234;28;20446;-70
2023/04/30 01:53:21;;;;;;;22.60;10.30;;;11.30;94.90;;;11.45;60.78;94648.28;4993052;28;20990;-55
2023/04/30 01:55:52;;;;;;;18.50;10.73;;;11.30;95.30;;;11.45;60.88;94645.66;4989463;28;20463;-73
2023/04/30 01:58:19;;;;;;;17.23;10.67;;;11.30;95.30;;;11.43;60.13;94648.44;4992024;28;20876;-71
2023/04/30 02:00:48;;;;;;;20.93;11.00;;;11.30;94.90;;;11.43;60.91;94643.19;4989202;28;20463;-72
2023/04/30 02:03:15;;;;;;;21.00;10.83;;;11.30;95.40;;;11.44;60.97;94647.44;4997216;28;20477;-71
2023/04/30 02:05:42;;;;;;;22.20;10.10;;;11.30;95.70;;;11.43;60.77;94645.81;4987678;28;21003;-58
2023/04/30 02:08:10;;;;;;;19.40;12.10;;;11.30;95.90;;;11.45;61.45;94645.66;4996675;28;20469;-56
2023/04/30 02:10:37;;;;;;;19.53;10.63;;;11.30;96.10;;;11.45;61.40;94645.66;4994090;28;20508;-57
2023/04/30 02:13:04;;;;;;;21.17;12.37;;;11.30;96.20;;;11.45;61.07;94637.75;4996400;28;20490;-72
2023/04/30 02:15:31;;;;;;;31.53;11.97;;;11.30;96.10;;;11.42;61.25;94640.69;4994384;28;20532;-55
2023/04/30 02:18:00;;;;;;;21.27;11.57;;;11.30;96.40;;;11.40;61.37;94640.84;4986551;28;20474;-56
2023/04/30 02:20:27;;;;;;;22.47;12.57;;;11.30;96.20;;;11.36;61.46;94642.13;4994791;28;20919;-71
2023/04/30 02:22:55;;;;;;;20.60;11.40;;;11.30;96.50;;;11.33;61.51;94641.59;4991545;28;20478;-57
2023/04/30 02:25:22;;;;;;;21.10;12.00;;;11.20;96.70;;;11.32;61.56;94645.19;4993835;28;20493;-55
2023/04/30 02:27:50;;;;;;;17.10;11.93;;;11.20;96.80;;;11.32;62.05;94638.13;4992951;28;20527;-57
2023/04/30 02:30:19;;;;;;;21.70;11.20;;;11.20;97.10;;;11.33;61.88;94631.88;4991004;28;20468;-72
2023/04/30 02:32:47;;;;;;;17.50;10.13;;;11.20;97.20;;;11.36;62.38;94641.28;4989424;28;20493;-72
2023/04/30 02:35:16;;;;;;;17.53;10.47;;;11.20;97.70;;;11.36;62.01;94642.13;4993765;28;20486;-58
2023/04/30 02:37:43;;;;;;;22.33;10.93;;;11.20;97.40;;;11.36;61.82;94642.13;4993678;28;20555;-57
2023/04/30 02:40:12;;;;;;;17.10;10.40;;;11.20;97.70;;;11.40;61.82;94642.63;4993126;28;20612;-57
2023/04/30 02:42:39;;;;;;;23.00;10.90;;;11.30;97.30;;;11.42;62.12;94638.06;4994298;28;20474;-73
2023/04/30 02:45:08;;;;;;;17.63;11.27;;;11.30;97.70;;;11.43;61.44;94637.06;4990161;28;20497;-72
2023/04/30 02:47:35;;;;;;;17.00;10.40;;;11.30;97.20;;;11.45;62.02;94643.84;4991861;28;20469;-73
2023/04/30 02:50:02;;;;;;;19.77;11.07;;;11.30;97.50;;;11.48;62.08;94640.09;4992979;28;20453;-72
2023/04/30 02:52:31;;;;;;;21.50;10.37;;;11.30;97.80;;;11.48;62.20;94654.09;4989809;28;20481;-56
2023/04/30 02:54:59;;;;;;;21.10;10.77;;;11.30;97.80;;;11.52;61.68;94651.16;4992923;28;20565;-55
2023/04/30 02:57:26;;;;;;;18.07;11.10;;;11.30;97.50;;;11.53;61.69;94655.44;4989495;28;20484;-72
2023/04/30 02:59:53;;;;;;;17.60;10.93;;;11.40;97.60;;;11.53;61.70;94651.00;4992013;28;20837;-57
2023/04/30 03:02:22;;;;;;;28.50;12.13;;;11.40;97.70;;;11.55;61.71;94650.84;4989748;28;20480;-73
2023/04/30 03:04:49;;;;;;;17.73;11.17;;;11.40;97.70;;;11.55;61.91;94651.66;4989344;28;20986;-56
2023/04/30 03:07:17;;;;;;;34.47;10.13;;;11.40;97.80;;;11.55;61.74;94649.03;4988803;28;20483;-57
2023/04/30 03:09:46;;;;;;;24.07;11.93;;;11.40;97.60;;;11.57;61.56;94656.78;4993210;28;20528;-57
2023/04/30 03:12:14;;;;;;;29.23;10.60;;;11.40;98.00;;;11.53;62.43;94653.63;4992749;28;20535;-73
2023/04/30 03:14:41;;;;;;;18.07;9.83;;;11.40;98.00;;;11.54;61.81;94660.56;4995531;28;20461;-72
2023/04/30 03:17:09;;;;;;;20.73;10.20;;;11.40;97.80;;;11.54;61.58;94660.56;4996225;28;20545;-57
2023/04/30 03:19:36;;;;;;;14.77;9.40;;;11.40;97.60;;;11.53;61.46;94661.53;4994580;28;20809;-72
2023/04/30 03:22:04;;;;;;;15.60;9.00;;;11.40;97.60;;;11.52;61.38;94661.69;4996368;28;20474;-72
2023/04/30 03:24:31;;;;;;;15.47;9.50;;;11.40;97.50;;;11.52;61.68;94666.94;4999608;28;20464;-72
2023/04/30 03:27:00;;;;;;;15.33;8.70;;;11.40;97.60;;;11.51;61.59;94663.50;4992331;28;20576;-72
2023/04/30 03:29:28;;;;;;;27.63;8.70;;;11.40;97.60;;;11.50;61.67;94667.09;4998704;28;20564;-57
2023/04/30 03:31:55;;;;;;;12.43;9.10;;;11.40;97.40;;;11.50;61.49;94667.09;4997199;28;20929;-58
2023/04/30 03:34:22;;;;;;;16.40;8.97;;;11.40;97.60;;;11.51;61.15;94668.75;4996618;28;20453;-72
2023/04/30 03:36:50;;;;;;;18.60;10.10;;;11.40;97.30;;;11.52;61.73;94667.75;4997502;28;21053;-56
2023/04/30 03:39:17;;;;;;;13.90;10.40;;;11.30;97.80;;;11.54;61.93;94676.38;4995538;28;20515;-72
2023/04/30 03:41:44;;;;;;;23.73;9.90;;;11.40;98.00;;;11.54;61.79;94676.38;4994033;28;20508;-57
2023/04/30 03:44:14;;;;;;;17.87;8.80;;;11.40;97.90;;;11.55;61.75;94678.00;4999126;28;20467;-57
2023/04/30 03:46:42;;;;;;;14.37;8.50;;;11.40;97.80;;;11.54;61.16;94681.63;4995596;28;20497;-74
2023/04/30 03:49:09;;;;;;;16.53;9.37;;;11.40;97.60;;;11.54;61.71;94683.41;4995053;28;20660;-58
2023/04/30 03:51:40;;;;;;;16.33;8.87;;;11.40;97.80;;;11.56;61.77;94694.66;4998557;28;20485;-56
2023/04/30 03:54:07;;;;;;;21.97;9.60;;;11.40;97.90;;;11.59;61.83;94697.00;4993858;28;20472;-57
2023/04/30 03:56:35;;;;;;;18.87;11.17;;;11.40;98.00;;;11.59;61.68;94684.63;4998576;28;20724;-57
2023/04/30 03:59:02;;;;;;;40.77;13.97;;;11.50;97.90;;;11.62;61.50;94694.88;4995544;28;20449;-73
2023/04/30 04:01:32;;;;;;;31.20;17.40;;;11.50;97.90;;;11.62;61.39;94700.13;4993749;28;20466;-73
2023/04/30 04:03:59;;;;;;;34.17;17.83;;;11.50;97.90;;;11.66;61.23;94698.03;4991783;28;20459;-58
2023/04/30 04:06:27;;;;;;;33.03;16.87;;;11.50;97.70;;;11.65;61.49;94699.84;4993994;28;20916;-72
2023/04/30 04:08:54;;;;;;;24.30;13.67;;;11.50;97.90;;;11.68;61.61;94697.88;4991573;28;20483;-56
2023/04/30 04:11:21;;;;;;;24.00;11.17;;;11.50;97.90;;;11.67;61.50;94702.31;5000595;28;20877;-73
2023/04/30 04:13:49;;;;;;;19.80;10.50;;;11.50;97.90;;;11.62;60.92;94702.78;4992879;28;20491;-74
2023/04/30 04:16:16;;;;;;;24.23;12.40;;;11.50;97.50;;;11.58;61.19;94698.78;4998272;28;20470;-56
2023/04/30 04:18:45;;;;;;;23.80;12.23;;;11.50;97.70;;;11.57;61.77;94706.81;4996114;28;20540;-56
2023/04/30 04:21:12;;;;;;;22.33;13.20;;;11.50;97.90;;;11.58;61.53;94703.22;4999363;28;20588;-56
2023/04/30 04:23:39;;;;;;;20.40;13.03;;;11.40;97.80;;;11.60;61.20;94707.38;4994708;28;20500;-57
2023/04/30 04:26:06;;;;;;;21.50;11.10;;;11.50;97.90;;;11.64;61.16;94710.53;4994201;28;20517;-76
2023/04/30 04:28:35;;;;;;;17.70;10.93;;;11.50;97.90;;;11.66;60.96;94711.19;4999740;28;20505;-74
2023/04/30 04:31:03;;;;;;;20.33;12.00;;;11.50;97.70;;;11.69;60.97;94713.53;4993385;28;20888;-73
2023/04/30 04:33:30;;;;;;;26.40;13.17;;;11.50;97.60;;;11.73;60.83;94714.06;4993061;28;20469;-72
2023/04/30 04:35:59;;;;;;;20.93;10.63;;;11.50;97.50;;;11.77;60.94;94718.91;4997605;28;20457;-57
2023/04/30 04:38:26;;;;;;;17.90;10.10;;;11.60;97.50;;;11.82;60.74;94714.00;4999448;28;20525;-73
2023/04/30 04:40:54;;;;;;;18.67;10.30;;;11.60;97.50;;;11.83;60.38;94718.28;4991883;28;20471;-57
2023/04/30 04:43:21;;;;;;;17.20;10.40;;;11.70;97.20;;;11.84;60.21;94719.94;4995427;28;20552;-58
2023/04/30 04:45:48;;;;;;;34.17;11.33;;;11.70;97.10;;;11.87;60.46;94717.97;4996406;28;20493;-73
2023/04/30 04:48:15;;;;;;;17.40;9.83;;;11.70;97.10;;;11.89;60.33;94716.84;4996096;28;20528;-57
2023/04/30 04:50:43;;;;;;;12.20;8.00;;;11.70;97.10;;;11.93;60.44;94718.22;4993196;28;20453;-73
2023/04/30 04:53:12;;;;;;;13.20;8.97;;;11.70;97.20;;;11.99;60.32;94722.06;4995022;28;21027;-73
2023/04/30 04:55:39;;;;;;;17.00;9.47;;;11.70;97.10;;;12.05;60.15;94728.53;4999807;28;20463;-57
2023/04/30 04:58:07;;;;;;;14.33;8.97;;;11.90;97.10;;;12.10;60.12;94726.25;4994605;28;20470;-58
2023/04/30 05:00:34;;;;;;;11.17;8.40;;;11.90;97.00;;;12.12;60.12;94730.41;4995416;28;20462;-58
2023/04/30 05:03:01;;;;;;;18.57;7.90;;;11.90;96.80;;;12.17;60.00;94733.41;4991234;28;20470;-57
2023/04/30 05:05:29;;;;;;;9.30;6.70;;;12.00;96.80;;;12.21;59.55;94726.03;4991444;28;20991;-58
2023/04/30 05:07:56;;;;;;;10.37;7.17;;;12.00;96.50;;;12.25;59.37;94727.38;4996240;28;20478;-73
2023/04/30 05:10:25;;;;;;;7.03;5.80;;;12.10;96.40;;;12.31;59.20;94725.94;4996178;28;20458;-58
2023/04/30 05:12:52;;;;;;;13.30;6.77;;;12.10;96.30;;;12.36;59.28;94729.78;4993686;28;20471;-73
2023/04/30 05:15:19;;;;;;;9.13;6.83;;;12.10;96.30;;;12.40;59.24;94730.28;4992091;28;20993;-74
2023/04/30 05:17:47;;;;;;;7.80;5.97;;;12.20;96.20;;;12.45;59.27;94728.00;4993030;28;20482;-74
2023/04/30 05:20:14;;;;;;;11.47;7.40;;;12.30;96.20;;;12.51;58.85;94737.13;4996180;28;20518;-73
2023/04/30 05:22:41;;;;;;;11.57;7.43;;;12.30;96.10;;;12.55;58.77;94722.63;4992807;28;20792;-55
2023/04/30 05:25:10;;;;;;;10.83;7.10;;;12.40;96.20;;;12.60;59.06;94724.81;4990027;28;20451;-73
2023/04/30 05:27:38;;;;;;;11.40;7.47;;;12.40;96.10;;;12.64;58.78;94729.63;4992307;28;20501;-73
2023/04/30 05:30:08;;;;;;;14.40;9.07;;;12.50;96.20;;;12.69;58.87;94729.16;4997112;28;20915;-57
2023/04/30 05:32:35;;;;;;;20.23;8.80;;;12.50;96.20;;;12.72;58.85;94726.19;4994779;28;20506;-73
2023/04/30 05:35:03;;;;;;;10.83;8.20;;;12.50;95.90;;;12.77;58.56;94731.84;4993291;28;20513;-74
2023/04/30 05:37:30;;;;;;;16.43;8.40;;;12.60;95.80;;;12.82;58.55;94734.81;4991348;28;20524;-74
2023/04/30 05:39:57;;;;;;;16.50;8.33;;;12.60;96.10;;;12.85;58.49;94729.22;4994615;28;20455;-57
2023/04/30 05:42:24;;;;;;;10.33;7.33;;;12.70;95.80;;;12.88;58.54;94733.38;4992999;28;20521;-57
2023/04/30 05:44:54;;;;;;;10.10;6.70;;;12.70;95.80;;;12.91;58.25;94725.13;4993857;28;20557;-57
2023/04/30 05:47:21;;;;;;;8.60;6.57;;;12.70;95.50;;;12.95;58.16;94733.56;5001531;28;20496;-56
2023/04/30 05:49:48;;;;;;;10.53;6.37;;;12.80;95.40;;;13.00;58.05;94731.28;4994938;28;20454;-57
2023/04/30 05:52:16;;;;;;;9.00;6.57;;;12.80;95.40;;;13.04;57.97;94736.09;4993905;28;20478;-75
2023/04/30 05:54:43;;;;;;;7.27;5.57;;;12.80;95.30;;;13.09;58.00;94725.06;4998451;28;20556;-58
2023/04/30 05:57:11;;;;;;;10.03;6.77;;;12.90;95.10;;;13.14;57.42;94728.03;4988192;28;21048;-73
2023/04/30 05:59:38;;;;;;;16.87;6.70;;;13.00;95.20;;;13.21;57.63;94728.22;4994168;28;20455;-58
2023/04/30 06:02:07;;;;;;;10.30;6.63;;;13.00;95.30;;;13.30;57.44;94737.03;4994991;28;21049;-75
2023/04/30 06:04:35;;;;;;;9.10;6.50;;;13.10;95.00;;;13.36;57.05;94739.88;4993918;28;20518;-58
2023/04/30 06:07:02;;;;;;;15.50;6.67;;;13.20;94.90;;;13.43;57.11;94746.19;4993031;28;20493;-57
2023/04/30 06:09:29;;;;;;;11.60;6.07;;;13.20;94.80;;;13.51;57.22;94744.53;4993519;28;20457;-57
2023/04/30 06:11:56;;;;;;;13.20;7.77;;;13.30;94.70;;;13.59;57.40;94748.03;4997149;28;20479;-73
2023/04/30 06:14:24;;;;;;;31.63;6.30;;;13.40;94.80;;;13.69;56.70;94747.06;4994956;28;20532;-57
2023/04/30 06:16:52;;;;;;;8.80;6.50;;;13.40;94.60;;;13.78;56.82;94748.72;4993981;28;20474;-73
2023/04/30 06:19:21;;;;;;;8.10;5.83;;;13.50;94.40;;;13.87;56.41;94747.75;4993180;28;20467;-57
2023/04/30 06:21:48;;;;;;;6.60;5.73;;;13.60;94.20;;;13.96;56.21;94749.41;4992146;28;20514;-56
2023/04/30 06:24:15;;;;;;;12.03;6.00;;;13.70;94.00;;;14.06;56.28;94748.44;4991793;28;20470;-74
2023/04/30 06:26:43;;;;;;;14.13;6.47;;;13.80;93.90;;;14.15;56.14;94760.69;4988730;28;20494;-75
2023/04/30 06:29:10;;;;;;;5.90;5.37;;;13.90;94.00;;;14.26;56.28;94757.69;4993578;28;20481;-76
2023/04/30 06:31:38;;;;;;;7.83;5.47;;;14.00;94.10;;;14.47;56.17;94756.38;4984109;28;20476;-76
2023/04/30 06:34:05;;;;;;;9.10;5.60;;;14.20;94.20;;;14.75;55.69;94748.09;4994310;28;21089;-77
2023/04/30 06:36:34;;;;;;;6.87;5.37;;;14.40;93.70;;;15.11;55.27;94747.69;4995555;28;20464;-58
2023/04/30 06:39:02;;;;;;;7.13;5.43;;;14.70;93.50;;;15.48;54.09;94744.38;4988585;28;20542;-59
2023/04/30 06:41:32;;;;;;;5.43;4.93;;;15.10;92.80;;;15.76;53.27;94744.72;4992054;28;20957;-59
2023/04/30 06:44:00;;;;;;;8.43;5.83;;;15.30;91.90;;;16.02;52.47;94746.25;4991645;28;20900;-74
2023/04/30 06:46:27;;;;;;;6.90;6.03;;;15.60;91.20;;;16.25;51.39;94745.41;4992092;28;20508;-72
2023/04/30 06:48:54;;;;;;;10.30;6.57;;;15.80;90.20;;;16.36;51.23;94746.81;4987009;28;20481;-58
2023/04/30 06:51:22;;;;;;;10.97;6.50;;;16.00;89.50;;;16.44;51.23;94752.06;4988821;28;20458;-58
2023/04/30 06:53:50;;;;;;;9.13;6.07;;;16.00;88.90;;;16.54;50.99;94751.81;4990573;28;20845;-73
2023/04/30 06:56:20;;;;;;;10.20;7.60;;;16.10;88.90;;;16.61;50.44;94747.44;4985159;28;20450;-72
2023/04/30 06:58:49;;;;;;;17.23;5.50;;;16.20;88.00;;;16.65;50.89;94751.38;4993010;28;20483;-76
2023/04/30 07:01:16;;;;;;;12.50;6.10;;;16.30;88.10;;;16.73;50.71;94753.97;4986358;28;20495;-59
2023/04/30 07:03:43;;;;;;;6.90;5.20;;;16.40;87.70;;;16.81;50.16;94747.75;4991954;28;20891;-75
2023/04/30 07:06:10;;;;;;;5.87;5.10;;;16.50;86.50;;;16.89;50.42;94746.88;4986093;28;20466;-58
2023/04/30 07:08:39;;;;;;;11.40;5.83;;;16.60;86.50;;;17.02;50.68;94745.25;4985407;28;20506;-59
2023/04/30 07:11:08;;;;;;;13.87;6.40;;;16.70;86.60;;;17.14;49.59;94748.25;4990007;28;20516;-75
2023/04/30 07:13:36;;;;;;;7.63;5.93;;;16.80;84.30;;;17.18;49.72;94752.22;4992696;28;20529;-77
2023/04/30 07:16:03;;;;;;;14.83;6.37;;;16.90;84.50;;;17.13;49.71;94743.13;4995173;28;20499;-80
2023/04/30 07:18:31;;;;;;;15.90;6.40;;;16.90;84.40;;;17.13;49.73;94751.09;4997354;28;20479;-74
2023/04/30 07:20:58;;;;;;;9.57;6.17;;;16.90;84.50;;;17.16;49.63;94753.38;4992487;28;21424;-57
2023/04/30 07:23:25;;;;;;;11.20;6.13;;;16.80;84.50;;;17.17;49.86;94755.03;4993534;28;20475;-69
2023/04/30 07:25:53;;;;;;;15.10;5.60;;;16.80;84.30;;;17.17;49.72;94752.38;4994178;28;20450;-70
2023/04/30 07:28:21;;;;;;;15.67;5.73;;;16.90;83.70;;;17.15;49.86;94754.38;4991288;28;20540;-70
2023/04/30 07:30:49;;;;;;;17.93;5.77;;;16.90;84.10;;;17.14;50.08;94760.72;4997008;28;20446;-58
2023/04/30 07:33:16;;;;;;;31.63;7.00;;;16.80;83.60;;;17.14;50.15;94755.41;4993304;28;20535;-67
2023/04/30 07:35:43;;;;;;;14.43;5.50;;;16.80;84.30;;;17.16;50.60;94754.19;4997604;28;20457;-67
2023/04/30 07:38:10;;;;;;;10.10;5.90;;;16.90;84.80;;;17.20;50.17;94755.50;4992497;28;20481;-56
2023/04/30 07:40:38;;;;;;;11.80;5.20;;;16.90;84.40;;;17.27;50.30;94754.75;4991427;28;20560;-55
2023/04/30 07:43:05;;;;;;;7.77;5.77;;;16.90;84.50;;;17.31;50.19;94756.88;4995518;28;20535;-77
2023/04/30 07:45:34;;;;;;;8.20;5.13;;;17.00;84.60;;;17.36;50.24;94749.16;4987519;28;20454;-75
2023/04/30 07:48:02;;;;;;;8.40;5.30;;;17.00;84.50;;;17.45;50.22;94757.06;4994060;28;20494;-59
2023/04/30 07:50:32;;;;;;;41.87;7.50;;;17.10;84.90;;;17.59;50.22;94753.53;4994920;28;20466;-58
2023/04/30 07:53:01;;;;;;;19.13;5.90;;;17.20;85.00;;;17.74;49.97;94749.00;4993048;28;20466;-78
2023/04/30 07:55:28;;;;;;;17.23;4.90;;;17.30;84.90;;;17.87;49.90;94756.31;4994183;28;20461;-78
2023/04/30 07:57:56;;;;;;;13.60;6.00;;;17.50;83.60;;;17.94;49.86;94758.25;4995356;28;20484;-57
2023/04/30 08:00:25;;;;;;;41.47;7.20;;;17.60;83.10;;;17.99;49.40;94758.53;4994828;28;20458;-73
2023/04/30 08:02:53;;;;;;;24.57;5.40;;;17.60;82.90;;;18.05;49.54;94763.09;4999129;28;21110;-76
2023/04/30 08:05:21;;;;;;;26.03;6.00;;;17.70;82.80;;;18.12;49.25;94761.31;4993697;28;21014;-57
2023/04/30 08:07:48;;;;;;;44.80;7.60;;;17.80;82.90;;;18.20;49.02;94758.56;4996420;28;20513;-74
2023/04/30 08:10:16;;;;;;;74.67;7.50;;;17.80;82.60;;;18.31;49.10;94761.69;4992469;28;20458;-73
2023/04/30 08:12:43;;;;;;;37.77;5.40;;;17.90;82.60;;;18.36;48.72;94769.97;4997161;28;20562;-74
2023/04/30 08:15:10;;;;;;;32.43;6.67;;;18.00;82.00;;;18.41;48.99;94762.22;4998784;28;20453;-57
2023/04/30 08:17:38;;;;;;;23.40;4.50;;;18.00;81.80;;;18.43;48.46;94773.50;4996310;28;20484;-75
2023/04/30 08:20:08;;;;;;;16.80;4.90;;;18.10;81.10;;;18.45;48.49;94761.66;5000070;28;20454;-74
2023/04/30 08:22:35;;;;;;;31.57;4.80;;;18.10;81.40;;;18.52;48.67;94769.69;4995701;28;20487;-75
2023/04/30 08:25:04;;;;;;;6.57;3.87;;;18.10;80.20;;;18.62;48.67;94764.88;4996830;28;20821;-58
2023/04/30 08:27:31;;;;;;;7.00;3.50;;;18.20;80.00;;;18.73;47.47;94766.19;5000282;28;20994;-57
2023/04/30 08:29:59;;;;;;;12.97;4.73;;;18.40;78.10;;;18.85;46.83;94766.50;4993834;28;20546;-56
2023/04/30 08:32:26;;;;;;;11.50;3.90;;;18.50;77.50;;;19.06;46.80;94762.16;4997314;28;20486;-57
2023/04/30 08:34:54;;;;;;;8.13;4.00;;;18.60;77.70;;;19.31;46.68;94762.50;4991159;28;20464;-58
2023/04/30 08:37:23;;;;;;;8.97;3.73;;;18.90;77.10;;;19.56;46.53;94759.34;4997963;28;21011;-60
2023/04/30 08:39:50;;;;;;;4.83;3.70;;;19.10;76.20;;;19.80;45.65;94766.03;4993317;28;20465;-72
2023/04/30 08:42:17;;;;;;;5.07;3.93;;;19.30;75.20;;;20.04;45.53;94762.00;4989662;28;20839;-71
2023/04/30 08:44:46;;;;;;;8.47;4.40;;;19.60;74.50;;;20.41;45.07;94759.81;5000001;28;20494;-76
2023/04/30 08:47:13;;;;;;;7.03;2.90;;;19.90;74.30;;;20.95;44.50;94753.50;4997363;28;20555;-75
2023/04/30 08:49:40;;;;;;;10.83;4.00;;;20.40;73.00;;;21.61;43.86;94749.06;4997509;28;20821;-59
2023/04/30 08:52:08;;;;;;;7.17;3.33;;;21.00;72.00;;;22.26;41.60;94747.31;4996222;28;20489;-57
2023/04/30 08:54:37;;;;;;;5.13;2.87;;;21.60;68.40;;;22.91;41.39;94739.00;4997470;28;20456;-56
2023/04/30 08:57:05;;;;;;;12.47;4.73;;;22.20;68.30;;;23.43;41.12;94736.88;4994159;28;20474;-70
2023/04/30 08:59:32;;;;;;;9.83;3.67;;;22.80;66.60;;;24.04;39.79;94737.00;4992554;28;20450;-60
2023/04/30 09:02:01;;;;;;;5.33;2.80;;;23.40;65.00;;;24.64;38.89;94736.16;4991840;28;20465;-61
2023/04/30 09:04:28;;;;;;;3.33;2.80;;;24.00;63.10;;;25.14;38.53;94729.53;4999058;28;20534;-70
2023/04/30 09:06:57;;;;;;;4.23;3.10;;;24.50;61.20;;;25.46;37.69;94720.31;4989364;28;20471;-58
2023/04/30 09:09:28;;;;;;;7.53;2.87;;;24.80;59.40;;;25.58;37.47;94723.81;4992919;28;20445;-71
2023/04/30 09:12:14;;;;;;;3.30;2.90;;;25.10;58.60;;;25.87;35.61;94715.75;4993890;28;20477;-72
2023/04/30 09:14:41;;;;;;;3.53;3.23;;;25.30;57.10;;;26.23;36.01;94711.09;4994179;28;20965;-57
2023/04/30 09:17:08;;;;;;;13.20;3.30;;;25.70;55.50;;;26.60;35.59;94713.31;4991845;28;20532;-58
2023/04/30 09:19:36;;;;;;;7.00;3.10;;;26.00;55.60;;;26.96;34.62;94711.25;4987821;28;20505;-57
2023/04/30 09:22:22;;;;;;;3.60;3.30;;;26.30;53.30;;;26.92;33.81;94705.50;4996913;28;20481;-72
2023/04/30 09:24:51;;;;;;;2.67;2.53;;;26.40;52.30;;;26.67;34.80;94707.81;4988119;28;21010;-58
2023/04/30 09:27:21;;;;;;;3.00;2.57;;;26.20;52.70;;;26.38;34.71;94705.94;4995181;28;20501;-73
2023/04/30 09:29:49;;;;;;;7.07;3.43;;;26.00;52.30;;;26.11;34.18;94701.16;4996597;28;20562;-72
2023/04/30 09:32:16;;;;;;;4.20;2.97;;;25.80;51.20;;;25.90;34.82;94694.56;4990410;28;20563;-57
2023/04/30 09:34:43;;;;;;;2.97;2.77;;;25.60;52.40;;;25.92;35.10;94697.81;4992379;28;20529;-56
2023/04/30 09:37:11;;;;;;;4.13;3.03;;;25.60;53.00;;;26.03;35.04;94701.56;4990790;28;20496;-72
2023/04/30 09:39:49;;;;;;;4.47;3.70;;;25.60;52.60;;;25.97;33.97;94693.59;4990240;28;20474;-58
2023/04/30 09:42:17;;;;;;;5.50;3.50;;;25.50;51.90;;;25.82;34.31;94696.81;4993545;28;20477;-75
2023/04/30 09:44:45;;;;;;;58.67;16.33;;;25.40;51.70;;;25.81;34.50;94695.16;4997190;28;20464;-60
2023/04/30 09:47:14;;;;;;;18.03;5.57;;;25.30;52.00;;;26.02;34.75;94686.44;4993328;28;20477;-56
2023/04/30 09:49:43;;;;;;;19.73;6.80;;;25.50;52.60;;;26.30;33.55;94682.06;4996667;28;20532;-58
2023/04/30 09:52:11;;;;;;;21.23;7.00;;;25.70;51.20;;;26.46;33.99;94681.28;4998153;28;20513;-58
2023/04/30 09:54:38;;;;;;;16.27;4.07;;;25.90;51.10;;;26.65;34.29;94679.19;4997223;28;20828;-57
2023/04/30 09:57:08;;;;;;;10.10;3.10;;;26.10;51.20;;;26.81;33.18;94680.25;4994506;28;21058;-57
2023/04/30 09:59:38;;;;;;;6.27;3.10;;;26.20;49.80;;;26.77;33.73;94681.81;4996583;28;20532;-58
2023/04/30 10:02:07;;;;;;;3.57;2.80;;;26.30;50.50;;;26.68;33.54;94677.06;4990850;28;20501;-57
2023/04/30 10:04:36;;;;;;;4.63;3.23;;;26.20;50.30;;;26.50;33.48;94678.09;4986181;28;20465;-75
2023/04/30 10:07:09;;;;;;;6.50;3.83;;;26.10;49.70;;;26.44;33.54;94672.59;4997271;28;20856;-75
2023/04/30 10:09:41;;;;;;;4.90;2.80;;;26.00;50.10;;;26.37;33.70;94666.56;4993394;28;20508;-57
2023/04/30 10:12:14;;;;;;;6.40;3.67;;;25.90;50.10;;;26.21;33.58;94676.28;4991005;28;21419;-57
2023/04/30 10:14:45;;;;;;;14.57;4.10;;;25.80;50.00;;;25.83;32.04;94683.09;4988891;28;20642;-59
2023/04/30 10:17:14;;;;;;;6.03;2.70;;;25.50;47.90;;;25.16;32.92;94703.22;4986876;28;20505;-59